Terminal Aerodrome Forecast
Issued by NWS

Home | Current Version | Previous Version | Text Only | Print | Product List | Glossary On
Versions: 1 2 3 4 5 6 7 8 9 10 11 12 13 14 15 16 17 18
008
FTUS43 KDTX 241449 AAA
TAFDET
TAF AMD
KDET 241449Z 2415/2512 16007KT P6SM -SHRA SCT040 OVC080
      TEMPO 2415/2417 4SM RA OVC050
     FM241900 23012G20KT P6SM SCT050 BKN100
     FM250100 22007KT P6SM BKN100 OVC250
     FM250500 22007KT P6SM -SHRA OVC040
     FM251000 25008KT 5SM BR SCT020 BKN150=

USA.gov is the U.S. government's official web portal to all federal, state and local government web resources and services.